Terminal Aerodrome Forecast
Issued by NWS

Home | Current Version | Previous Version | Text Only | Print | Product List | Glossary On
Versions: 1 2 3 4 5 6 7 8 9 10 11 12 13
000
FTUS43 KSGF 061100
TAFBBG
TAF
KBBG 061120Z 0612/0712 15006KT P6SM OVC100
     FM061500 16012G18KT 5SM -SHRA BKN050 OVC100
      TEMPO 0617/0621 3SM TSRA SCT015 OVC025CB
     FM062100 16012G17KT P6SM BKN040
     FM070000 15010KT P6SM BKN150
     FM070600 15006KT P6SM SCT250 WS020/19035KT=

USA.gov is the U.S. government's official web portal to all federal, state and local government web resources and services.